Kaprifol — 5BXX2 — position and weather

sailwx.info

Track history (hours):
 
Tides and Currents Weather Stations Pressure Air Temp Water Temp Dewpoint Dewpoint Depression Visibility Wind Speed Wind Dir Waves Ship Positions

Kaprifol

Last reported at 2014-Dec-16 08:32 UTC. Time now 2014-Dec-20 11:33 UTC.
Position N 62°42' W 007°17'.

Length 90 m; draft 5 m.

Type: Tanker. MMSI: 210445000.

Date/timePositionNaut miles runAvg speedWind from/ knotsBaromVisibWave heightAir tempDewpointWater temp
2014-Dec-16 08:32N 62°42' W 007°17'4 1.9
2014-Dec-16 06:33N 62°38' W 007°14'1 1.1
2014-Dec-16 05:33N 62°37' W 007°14'9 1.1
2014-Dec-15 21:31N 62°29' W 007°08'3 2.8
2014-Dec-15 20:33N 62°27' W 007°03'3 2.9
2014-Dec-15 19:33N 62°25' W 006°59'3 2.9
2014-Dec-15 18:32N 62°23' W 006°55'3 3.2
2014-Dec-15 17:33N 62°20' W 006°52'5 4.8
2014-Dec-15 16:32N 62°16' W 006°46'2 1.9
2014-Dec-15 15:33N 62°15' W 006°45'1 1.4
2014-Dec-15 14:33N 62°14' W 006°48'0 0.0
2014-Dec-15 13:31N 62°14' W 006°48'0 0.0
2014-Dec-15 12:15N 62°14' W 006°48'0 0.0
2014-Dec-15 11:18N 62°14' W 006°48'0 0.0
2014-Dec-15 10:33N 62°14' W 006°48'0 0.0
2014-Dec-15 09:33N 62°14' W 006°48'0 0.0
2014-Dec-15 08:33N 62°14' W 006°48'0 0.0
2014-Dec-15 07:27N 62°14' W 006°48'0 0.0
2014-Dec-15 06:24N 62°14' W 006°48'0 0.0
2014-Dec-15 05:30N 62°14' W 006°48'0 0.0
2014-Dec-15 04:33N 62°14' W 006°48'0 0.0
2014-Dec-15 03:27N 62°14' W 006°48'0 0.0
2014-Dec-15 02:27N 62°14' W 006°48'0 0.0
2014-Dec-15 01:33N 62°14' W 006°48'0 0.0
2014-Dec-15 00:21N 62°14' W 006°48'0 0.0
2014-Dec-14 23:33N 62°14' W 006°48'0 0.0
2014-Dec-14 22:30N 62°14' W 006°48'0 0.0
2014-Dec-14 21:33N 62°14' W 006°48'0 0.0
2014-Dec-14 20:21N 62°14' W 006°48'0 0.0
2014-Dec-14 19:33N 62°14' W 006°48'0 0.0
2014-Dec-14 18:30N 62°14' W 006°48'0 0.0
2014-Dec-14 17:27N 62°14' W 006°48'0 0.0
2014-Dec-14 16:33N 62°14' W 006°48'0 0.0
2014-Dec-14 15:30N 62°14' W 006°48'0 0.0
2014-Dec-14 14:33N 62°14' W 006°48'0 0.0
2014-Dec-14 13:21N 62°14' W 006°48'0 0.0
2014-Dec-14 12:30N 62°14' W 006°48'0 0.0
2014-Dec-14 11:27N 62°14' W 006°48'0 0.0
2014-Dec-14 10:33N 62°14' W 006°48'0 0.0
2014-Dec-14 09:33N 62°14' W 006°48'0 0.0
2014-Dec-14 08:30N 62°14' W 006°48'0 0.0
2014-Dec-14 07:33N 62°14' W 006°48'0 0.0
2014-Dec-14 06:33N 62°14' W 006°48'1 1.4
2014-Dec-14 05:34N 62°14' W 006°45'7 6.9
2014-Dec-14 04:34N 62°09' W 006°34'9 9.0
2014-Dec-14 03:33N 62°05' W 006°17'9 8.9
2014-Dec-14 02:33N 62°01' W 005°60'9 8.8
2014-Dec-14 01:32N 61°58' W 005°42'  
2014-Dec-11 06:09N 58°07' E 005°52'3 5.2
2014-Dec-11 05:33N 58°05' E 005°57'6 5.2
2014-Dec-11 04:29N 58°02' E 006°05'150 4.3
2014-Dec-09 17:14N 57°47' E 010°47'7 9.4
2014-Dec-09 16:32N 57°45' E 010°59'9 9.7
2014-Dec-09 15:33N 57°41' E 011°15'9 9.3
2014-Dec-09 14:33N 57°38' E 011°31'8 8.4
2014-Dec-09 13:34N 57°40' E 011°46'1 0.9
2014-Dec-09 12:33N 57°40' E 011°47'0 0.1
2014-Dec-09 11:33N 57°40' E 011°47'8 7.8
2014-Dec-09 10:33N 57°34' E 011°40'9 9.4
2014-Dec-09 09:33N 57°24' E 011°44'10 9.8
2014-Dec-09 08:33N 57°16' E 011°52'1010.0
2014-Dec-09 07:33N 57°06' E 011°59'1010.1
2014-Dec-09 06:33N 56°57' E 012°04'1010.3
2014-Dec-09 05:32N 56°46' E 012°07'1010.4
2014-Dec-09 04:33N 56°36' E 012°11'2410.0
2014-Dec-09 02:12N 56°14' E 012°24'710.4
2014-Dec-09 01:33N 56°08' E 012°31'9 9.2
2014-Dec-09 00:34N 56°01' E 012°41'9 8.8
2014-Dec-08 23:33N 55°52' E 012°44'9 9.3
2014-Dec-08 22:33N 55°43' E 012°41'9 9.0
2014-Dec-08 21:33N 55°34' E 012°42'1010.2
2014-Dec-08 20:33N 55°24' E 012°41'8 8.4
2014-Dec-08 19:33N 55°17' E 012°48'10 9.9
2014-Dec-08 18:33N 55°15' E 013°06'20 9.7
2014-Dec-08 16:32N 55°15' E 013°40'10 9.9
2014-Dec-08 15:33N 55°14' E 013°57'10 9.7
2014-Dec-08 14:33N 55°14' E 014°14'9 9.5
2014-Dec-08 13:33N 55°20' E 014°27'10 9.5
2014-Dec-08 12:33N 55°26' E 014°39'9 9.4
2014-Dec-08 11:33N 55°27' E 014°56'10 9.7
2014-Dec-08 10:32N 55°27' E 015°14'9 9.6
2014-Dec-08 09:33N 55°28' E 015°30'  
Track history (hours):
 
Tides and Currents Weather Stations Pressure Air Temp Water Temp Dewpoint Dewpoint Depression Visibility Wind Speed Wind Dir Waves Ship Positions

Kaprifol

Last reported at 2014-Dec-16 08:32 UTC. Time now 2014-Dec-20 11:33 UTC.
Position N 62°42' W 007°17'.

Length 90 m; draft 5 m.

Type: Tanker. MMSI: 210445000.

Date/timePositionNaut miles runAvg speedWind from/ knotsBaromVisibWave heightAir tempDewpointWater temp
2014-Dec-16 08:32N 62°42' W 007°17'4 1.9
2014-Dec-16 06:33N 62°38' W 007°14'1 1.1
2014-Dec-16 05:33N 62°37' W 007°14'9 1.1
2014-Dec-15 21:31N 62°29' W 007°08'3 2.8
2014-Dec-15 20:33N 62°27' W 007°03'3 2.9
2014-Dec-15 19:33N 62°25' W 006°59'3 2.9
2014-Dec-15 18:32N 62°23' W 006°55'3 3.2
2014-Dec-15 17:33N 62°20' W 006°52'5 4.8
2014-Dec-15 16:32N 62°16' W 006°46'2 1.9
2014-Dec-15 15:33N 62°15' W 006°45'1 1.4
2014-Dec-15 14:33N 62°14' W 006°48'0 0.0
2014-Dec-15 13:31N 62°14' W 006°48'0 0.0
2014-Dec-15 12:15N 62°14' W 006°48'0 0.0
2014-Dec-15 11:18N 62°14' W 006°48'0 0.0
2014-Dec-15 10:33N 62°14' W 006°48'0 0.0
2014-Dec-15 09:33N 62°14' W 006°48'0 0.0
2014-Dec-15 08:33N 62°14' W 006°48'0 0.0
2014-Dec-15 07:27N 62°14' W 006°48'0 0.0
2014-Dec-15 06:24N 62°14' W 006°48'0 0.0
2014-Dec-15 05:30N 62°14' W 006°48'0 0.0
2014-Dec-15 04:33N 62°14' W 006°48'0 0.0
2014-Dec-15 03:27N 62°14' W 006°48'0 0.0
2014-Dec-15 02:27N 62°14' W 006°48'0 0.0
2014-Dec-15 01:33N 62°14' W 006°48'0 0.0
2014-Dec-15 00:21N 62°14' W 006°48'0 0.0
2014-Dec-14 23:33N 62°14' W 006°48'0 0.0
2014-Dec-14 22:30N 62°14' W 006°48'0 0.0
2014-Dec-14 21:33N 62°14' W 006°48'0 0.0
2014-Dec-14 20:21N 62°14' W 006°48'0 0.0
2014-Dec-14 19:33N 62°14' W 006°48'0 0.0
2014-Dec-14 18:30N 62°14' W 006°48'0 0.0
2014-Dec-14 17:27N 62°14' W 006°48'0 0.0
2014-Dec-14 16:33N 62°14' W 006°48'0 0.0
2014-Dec-14 15:30N 62°14' W 006°48'0 0.0
2014-Dec-14 14:33N 62°14' W 006°48'0 0.0
2014-Dec-14 13:21N 62°14' W 006°48'0 0.0
2014-Dec-14 12:30N 62°14' W 006°48'0 0.0
2014-Dec-14 11:27N 62°14' W 006°48'0 0.0
2014-Dec-14 10:33N 62°14' W 006°48'0 0.0
2014-Dec-14 09:33N 62°14' W 006°48'0 0.0
2014-Dec-14 08:30N 62°14' W 006°48'0 0.0
2014-Dec-14 07:33N 62°14' W 006°48'0 0.0
2014-Dec-14 06:33N 62°14' W 006°48'1 1.4
2014-Dec-14 05:34N 62°14' W 006°45'7 6.9
2014-Dec-14 04:34N 62°09' W 006°34'9 9.0
2014-Dec-14 03:33N 62°05' W 006°17'9 8.9
2014-Dec-14 02:33N 62°01' W 005°60'9 8.8
2014-Dec-14 01:32N 61°58' W 005°42'  
2014-Dec-11 06:09N 58°07' E 005°52'3 5.2
2014-Dec-11 05:33N 58°05' E 005°57'6 5.2
2014-Dec-11 04:29N 58°02' E 006°05'150 4.3
2014-Dec-09 17:14N 57°47' E 010°47'7 9.4
2014-Dec-09 16:32N 57°45' E 010°59'9 9.7
2014-Dec-09 15:33N 57°41' E 011°15'9 9.3
2014-Dec-09 14:33N 57°38' E 011°31'8 8.4
2014-Dec-09 13:34N 57°40' E 011°46'1 0.9
2014-Dec-09 12:33N 57°40' E 011°47'0 0.1
2014-Dec-09 11:33N 57°40' E 011°47'8 7.8
2014-Dec-09 10:33N 57°34' E 011°40'9 9.4
2014-Dec-09 09:33N 57°24' E 011°44'10 9.8
2014-Dec-09 08:33N 57°16' E 011°52'1010.0
2014-Dec-09 07:33N 57°06' E 011°59'1010.1
2014-Dec-09 06:33N 56°57' E 012°04'1010.3
2014-Dec-09 05:32N 56°46' E 012°07'1010.4
2014-Dec-09 04:33N 56°36' E 012°11'2410.0
2014-Dec-09 02:12N 56°14' E 012°24'710.4
2014-Dec-09 01:33N 56°08' E 012°31'9 9.2
2014-Dec-09 00:34N 56°01' E 012°41'9 8.8
2014-Dec-08 23:33N 55°52' E 012°44'9 9.3
2014-Dec-08 22:33N 55°43' E 012°41'9 9.0
2014-Dec-08 21:33N 55°34' E 012°42'1010.2
2014-Dec-08 20:33N 55°24' E 012°41'8 8.4
2014-Dec-08 19:33N 55°17' E 012°48'10 9.9
2014-Dec-08 18:33N 55°15' E 013°06'20 9.7
2014-Dec-08 16:32N 55°15' E 013°40'10 9.9
2014-Dec-08 15:33N 55°14' E 013°57'10 9.7
2014-Dec-08 14:33N 55°14' E 014°14'9 9.5
2014-Dec-08 13:33N 55°20' E 014°27'10 9.5
2014-Dec-08 12:33N 55°26' E 014°39'9 9.4
2014-Dec-08 11:33N 55°27' E 014°56'10 9.7
2014-Dec-08 10:32N 55°27' E 015°14'9 9.6
2014-Dec-08 09:33N 55°28' E 015°30'  

Dump ship's entire track history